createdAt,value
2023-01-22T00:01:12.683Z,93.03
2023-01-22T00:04:16.424Z,94.45
2023-01-22T00:07:20.756Z,96.16
2023-01-22T00:10:23.334Z,94.12
2023-01-22T00:13:27.001Z,92.58
2023-01-22T00:16:29.681Z,92.74
2023-01-22T00:19:32.964Z,93.16
2023-01-22T00:22:36.901Z,92.94
2023-01-22T00:25:39.566Z,93.51
2023-01-22T00:28:43.962Z,94.44
2023-01-22T00:31:46.584Z,93.21
2023-01-22T00:34:52.316Z,92.16
2023-01-22T00:37:56.367Z,91.50
2023-01-22T00:41:01.871Z,92.54
2023-01-22T00:44:04.699Z,92.82
2023-01-22T00:47:07.276Z,92.33
2023-01-22T00:50:11.497Z,92.07
2023-01-22T00:53:15.502Z,91.53
2023-01-22T00:56:18.326Z,90.70
2023-01-22T00:59:20.932Z,89.10
2023-01-22T01:02:23.523Z,89.94
2023-01-22T01:05:26.172Z,91.17
2023-01-22T01:08:32.156Z,92.36
2023-01-22T01:11:34.803Z,91.46
2023-01-22T01:14:37.417Z,91.03
2023-01-22T01:17:39.979Z,90.47
2023-01-22T01:20:42.735Z,91.47
2023-01-22T01:23:47.573Z,91.64
2023-01-22T01:26:50.169Z,90.84
2023-01-22T01:29:52.736Z,90.94
2023-01-22T01:32:55.306Z,90.40
2023-01-22T01:36:02.147Z,90.82
2023-01-22T01:39:06.160Z,90.80
2023-01-22T01:42:09.405Z,91.55
2023-01-22T01:45:27.588Z,92.46
2023-01-22T01:48:33.929Z,91.45
2023-01-22T01:51:37.814Z,91.63
2023-01-22T01:54:45.421Z,92.02
2023-01-22T01:57:48.206Z,92.15
2023-01-22T02:00:55.196Z,92.46
2023-01-22T02:03:58.967Z,92.82
2023-01-22T02:07:01.780Z,92.55
2023-01-22T02:10:07.116Z,92.42
2023-01-22T02:13:13.936Z,92.07
2023-01-22T02:16:16.535Z,92.64
2023-01-22T02:19:19.135Z,92.60
2023-01-22T02:22:24.733Z,93.24
2023-01-22T02:25:27.471Z,91.98
2023-01-22T02:28:30.054Z,91.12
2023-01-22T02:31:32.661Z,90.84
2023-01-22T02:34:35.486Z,92.44
2023-01-22T02:37:39.455Z,91.96
2023-01-22T02:40:49.106Z,93.24
2023-01-22T02:43:51.930Z,92.52
2023-01-22T02:46:54.516Z,93.93
2023-01-22T02:49:57.079Z,95.08
2023-01-22T02:53:01.047Z,95.05
2023-01-22T02:56:06.604Z,95.22
2023-01-22T02:59:09.356Z,94.72
2023-01-22T03:02:12.196Z,93.68
2023-01-22T03:05:14.902Z,95.00
2023-01-22T03:08:20.476Z,93.76
2023-01-22T03:11:23.807Z,94.52
2023-01-22T03:14:44.091Z,93.70
2023-01-22T03:18:04.305Z,94.27
2023-01-22T03:21:20.141Z,94.52
2023-01-22T03:24:24.283Z,94.03
2023-01-22T03:27:28.799Z,93.89
2023-01-22T03:30:31.370Z,94.96
2023-01-22T03:33:34.750Z,95.07
2023-01-22T03:36:37.399Z,94.63
2023-01-22T03:39:42.252Z,94.25
2023-01-22T03:42:44.853Z,94.51
2023-01-22T03:45:47.437Z,93.91
2023-01-22T03:48:52.009Z,94.07
2023-01-22T03:51:54.587Z,94.11
2023-01-22T03:54:58.520Z,94.19
2023-01-22T03:58:01.070Z,93.15
2023-01-22T04:01:05.869Z,94.43
2023-01-22T04:04:08.480Z,93.86
2023-01-22T04:07:11.091Z,94.87
2023-01-22T04:10:15.137Z,95.46
2023-01-22T04:13:17.750Z,96.18
2023-01-22T04:16:20.343Z,97.77
2023-01-22T04:19:22.933Z,96.56
2023-01-22T04:22:25.527Z,96.08
2023-01-22T04:25:29.475Z,95.87
2023-01-22T04:28:32.127Z,95.99
2023-01-22T04:31:34.827Z,96.61
2023-01-22T04:34:37.449Z,95.45
2023-01-22T04:37:40.350Z,96.49
2023-01-22T04:40:44.283Z,96.41
2023-01-22T04:43:46.847Z,96.46
2023-01-22T04:46:49.453Z,96.75
2023-01-22T04:49:52.201Z,95.19
2023-01-22T04:52:56.147Z,95.37
2023-01-22T04:56:00.105Z,95.93
2023-01-22T04:59:02.686Z,96.36
2023-01-22T05:02:05.908Z,97.11
2023-01-22T05:05:09.769Z,96.15
2023-01-22T05:08:12.379Z,95.55
2023-01-22T05:11:16.350Z,96.67
2023-01-22T05:14:19.019Z,96.96
2023-01-22T05:17:22.072Z,97.66
2023-01-22T05:20:25.495Z,97.49
2023-01-22T05:23:28.088Z,96.19
2023-01-22T05:26:32.030Z,95.45
2023-01-22T05:29:34.620Z,96.16
2023-01-22T05:32:37.264Z,96.81
2023-01-22T05:35:39.846Z,96.14
2023-01-22T05:38:42.460Z,97.13
2023-01-22T05:41:46.386Z,96.50
2023-01-22T05:44:49.127Z,96.58
2023-01-22T05:47:53.886Z,96.76
2023-01-22T05:50:56.489Z,96.47
2023-01-22T05:53:59.211Z,95.04
2023-01-22T05:57:03.196Z,94.56
2023-01-22T06:00:08.426Z,94.37
2023-01-22T06:03:11.055Z,96.16
2023-01-22T06:06:15.447Z,94.68
2023-01-22T06:09:18.078Z,94.72
2023-01-22T06:12:22.041Z,94.95
2023-01-22T06:15:24.685Z,95.38
2023-01-22T06:18:27.864Z,97.43
2023-01-22T06:21:30.440Z,99.00
2023-01-22T06:24:33.023Z,96.90
2023-01-22T06:27:36.973Z,96.31
2023-01-22T06:30:39.565Z,96.37
2023-01-22T06:33:42.267Z,96.21
2023-01-22T06:36:44.910Z,95.56
2023-01-22T06:39:47.538Z,94.55
2023-01-22T06:42:51.477Z,95.10
2023-01-22T06:45:54.695Z,95.08
2023-01-22T06:48:58.883Z,93.84
2023-01-22T06:52:01.442Z,95.05
2023-01-22T06:55:04.278Z,95.22
2023-01-22T06:58:08.205Z,96.25
2023-01-22T07:01:10.846Z,95.12
2023-01-22T07:04:13.429Z,95.91
2023-01-22T07:07:16.213Z,96.18
2023-01-22T07:10:19.272Z,95.63
2023-01-22T07:13:23.600Z,96.86
2023-01-22T07:16:26.204Z,97.82
2023-01-22T07:19:28.860Z,96.52
2023-01-22T07:22:32.275Z,95.83
2023-01-22T07:25:34.876Z,96.12
2023-01-22T07:28:38.853Z,95.65
2023-01-22T07:31:41.442Z,95.64
2023-01-22T07:34:44.097Z,97.17
2023-01-22T07:37:52.504Z,97.65
2023-01-22T07:40:55.581Z,97.13
2023-01-22T07:44:00.422Z,97.88
2023-01-22T07:47:03.031Z,97.29
2023-01-22T07:50:06.518Z,97.58
2023-01-22T07:53:11.639Z,97.39
2023-01-22T07:56:14.224Z,95.97
2023-01-22T07:59:18.254Z,97.34
2023-01-22T08:02:20.848Z,95.95
2023-01-22T08:05:24.070Z,95.88
2023-01-22T08:08:26.653Z,98.68
2023-01-22T08:11:29.631Z,98.46
2023-01-22T08:14:33.578Z,97.25
2023-01-22T08:17:36.428Z,96.28
2023-01-22T08:20:39.021Z,96.84
2023-01-22T08:23:42.536Z,97.64
2023-01-22T08:26:46.313Z,96.69
2023-01-22T08:29:50.748Z,96.44
2023-01-22T08:32:53.500Z,96.93
2023-01-22T08:35:56.481Z,96.03
2023-01-22T08:38:59.110Z,97.56
2023-01-22T08:42:01.715Z,96.38
2023-01-22T08:45:06.830Z,97.19
2023-01-22T08:48:09.430Z,96.64
2023-01-22T08:51:12.781Z,96.65
2023-01-22T08:54:15.432Z,96.25
2023-01-22T08:57:18.023Z,96.58
2023-01-22T09:00:23.283Z,97.01
2023-01-22T09:03:26.090Z,96.98
2023-01-22T09:06:28.777Z,98.14
2023-01-22T09:09:31.369Z,96.82
2023-01-22T09:12:33.976Z,98.40
2023-01-22T09:15:38.270Z,97.24
2023-01-22T09:18:41.006Z,98.07
2023-01-22T09:21:43.645Z,99.15
2023-01-22T09:24:46.205Z,97.30
2023-01-22T09:27:48.820Z,96.77
2023-01-22T09:30:52.793Z,98.29
2023-01-22T09:33:55.867Z,98.93
2023-01-22T09:37:00.128Z,98.35
2023-01-22T09:40:02.793Z,97.77
2023-01-22T09:43:07.665Z,96.02
2023-01-22T09:46:17.910Z,97.04
2023-01-22T09:49:24.462Z,98.54
2023-01-22T09:52:30.761Z,98.16
2023-01-22T09:55:41.650Z,98.56
2023-01-22T09:58:44.521Z,99.79
2023-01-22T10:01:52.271Z,98.85
2023-01-22T10:04:59.764Z,97.77
2023-01-22T10:08:06.790Z,96.74
2023-01-22T10:11:10.899Z,96.91
2023-01-22T10:14:18.260Z,97.02
2023-01-22T10:17:25.662Z,97.01
2023-01-22T10:20:29.037Z,96.40
2023-01-22T10:23:33.629Z,95.54
2023-01-22T10:26:38.812Z,96.11
2023-01-22T10:29:41.787Z,96.17
2023-01-22T10:32:45.786Z,96.26
2023-01-22T10:35:50.289Z,94.31
2023-01-22T10:39:04.560Z,95.06
2023-01-22T10:42:07.183Z,95.12
2023-01-22T10:45:15.931Z,95.32
2023-01-22T10:48:20.603Z,92.71
2023-01-22T10:51:28.338Z,92.63
2023-01-22T10:54:33.887Z,93.64
2023-01-22T10:57:37.689Z,92.03
2023-01-22T11:00:51.848Z,93.49
2023-01-22T11:03:56.449Z,91.67
2023-01-22T11:07:06.467Z,92.65
2023-01-22T11:10:17.174Z,93.03
2023-01-22T11:13:24.232Z,93.05
2023-01-22T11:16:27.088Z,92.18
2023-01-22T11:19:40.650Z,91.83
2023-01-22T11:22:47.499Z,91.58
2023-01-22T11:25:58.640Z,91.51
2023-01-22T11:29:09.343Z,91.67
2023-01-22T11:32:37.821Z,90.92
2023-01-22T11:35:48.550Z,91.34
2023-01-22T11:38:56.080Z,89.03
2023-01-22T11:42:06.701Z,90.08
2023-01-22T11:45:26.607Z,90.36
2023-01-22T11:48:41.670Z,89.44
2023-01-22T11:51:59.527Z,89.09
2023-01-22T11:55:19.356Z,89.00
2023-01-22T11:58:30.451Z,89.39
2023-01-22T12:01:51.769Z,89.31
2023-01-22T12:05:10.512Z,89.84
2023-01-22T12:08:37.047Z,89.81
2023-01-22T12:11:53.592Z,90.63
2023-01-22T12:15:30.707Z,89.50
2023-01-22T12:19:02.079Z,90.02
2023-01-22T12:22:10.321Z,89.98
2023-01-22T12:25:20.567Z,89.98
2023-01-22T12:28:29.246Z,90.32
2023-01-22T12:31:36.326Z,89.88
2023-01-22T12:34:45.050Z,88.71
2023-01-22T12:37:54.557Z,89.94
2023-01-22T12:41:13.743Z,89.78
2023-01-22T12:44:26.412Z,90.31
2023-01-22T12:47:36.947Z,91.24
2023-01-22T12:50:49.882Z,89.76
2023-01-22T12:53:52.587Z,88.98
2023-01-22T12:57:10.277Z,91.23
2023-01-22T13:00:24.814Z,91.52
2023-01-22T13:03:32.016Z,90.33
2023-01-22T13:06:38.197Z,89.32
2023-01-22T13:09:40.784Z,88.53
2023-01-22T13:12:49.320Z,88.78
2023-01-22T13:15:54.636Z,89.45
2023-01-22T13:19:00.618Z,88.92
2023-01-22T13:22:04.397Z,87.50
2023-01-22T13:25:07.404Z,87.53
2023-01-22T13:28:17.438Z,87.94
2023-01-22T13:31:20.138Z,89.65
2023-01-22T13:34:23.490Z,89.39
2023-01-22T13:37:27.723Z,90.03
2023-01-22T13:40:42.783Z,90.01
2023-01-22T13:43:50.554Z,89.35
2023-01-22T13:46:53.559Z,90.15
2023-01-22T13:49:56.415Z,89.84
2023-01-22T13:53:00.608Z,89.97
2023-01-22T13:56:03.498Z,89.38
2023-01-22T13:59:18.112Z,91.72
2023-01-22T14:02:24.189Z,90.58
2023-01-22T14:05:28.784Z,90.78
2023-01-22T14:08:31.443Z,89.50
2023-01-22T14:11:40.987Z,88.18
2023-01-22T14:14:45.658Z,90.46
2023-01-22T14:17:50.579Z,91.09
2023-01-22T14:20:53.351Z,90.11
2023-01-22T14:23:56.030Z,89.17
2023-01-22T14:26:58.735Z,91.55
2023-01-22T14:30:02.699Z,90.84
2023-01-22T14:33:05.845Z,89.58
2023-01-22T14:36:09.207Z,89.27
2023-01-22T14:39:11.827Z,90.53
2023-01-22T14:42:14.425Z,89.72
2023-01-22T14:45:20.265Z,89.37
2023-01-22T14:48:23.415Z,89.38
2023-01-22T14:51:26.036Z,89.30
2023-01-22T14:54:28.635Z,91.21
2023-01-22T14:57:31.445Z,89.74
2023-01-22T15:00:35.408Z,90.67
2023-01-22T15:03:38.000Z,91.47
2023-01-22T15:06:40.619Z,89.26
2023-01-22T15:09:43.690Z,90.06
2023-01-22T15:12:48.018Z,89.03
2023-01-22T15:15:51.943Z,89.26
2023-01-22T15:18:56.438Z,90.07
2023-01-22T15:21:59.030Z,89.45
2023-01-22T15:25:01.610Z,87.95
2023-01-22T15:28:04.207Z,90.76
2023-01-22T15:31:08.452Z,89.23
2023-01-22T15:34:11.098Z,89.04
2023-01-22T15:37:14.817Z,90.17
2023-01-22T15:40:18.153Z,89.81
2023-01-22T15:43:20.804Z,89.38
2023-01-22T15:46:26.115Z,88.77
2023-01-22T15:49:28.821Z,89.51
2023-01-22T15:52:31.377Z,90.47
2023-01-22T15:55:33.980Z,89.07
2023-01-22T15:58:36.571Z,88.81
2023-01-22T16:01:40.681Z,89.60
2023-01-22T16:04:43.379Z,89.36
2023-01-22T16:07:46.145Z,89.33
2023-01-22T16:10:49.272Z,89.00
2023-01-22T16:13:52.242Z,88.21
2023-01-22T16:16:56.311Z,89.93
2023-01-22T16:19:58.984Z,88.67
2023-01-22T16:23:01.550Z,89.53
2023-01-22T16:26:07.235Z,89.57
2023-01-22T16:29:11.135Z,89.92
2023-01-22T16:32:15.134Z,89.00
2023-01-22T16:35:18.370Z,89.77
2023-01-22T16:38:20.962Z,89.81
2023-01-22T16:41:27.795Z,88.05
2023-01-22T16:44:33.323Z,90.75
2023-01-22T16:47:37.495Z,89.58
2023-01-22T16:50:40.239Z,88.82
2023-01-22T16:53:42.843Z,88.16
2023-01-22T16:56:45.420Z,88.63
2023-01-22T16:59:48.011Z,89.98
2023-01-22T17:02:52.098Z,90.57
2023-01-22T17:05:54.735Z,91.10
2023-01-22T17:08:57.522Z,90.50
2023-01-22T17:12:05.668Z,89.36
2023-01-22T17:15:09.550Z,90.91
2023-01-22T17:18:13.874Z,89.71
2023-01-22T17:21:19.206Z,89.54
2023-01-22T17:24:23.135Z,89.36
2023-01-22T17:27:25.828Z,90.18
2023-01-22T17:30:28.425Z,90.01
2023-01-22T17:33:32.339Z,91.11
2023-01-22T17:36:35.330Z,91.23
2023-01-22T17:39:38.508Z,91.22
2023-01-22T17:42:41.140Z,92.10
2023-01-22T17:45:43.710Z,93.27
2023-01-22T17:48:49.396Z,93.78
2023-01-22T17:51:52.048Z,92.70
2023-01-22T17:54:54.643Z,91.46
2023-01-22T17:57:59.183Z,91.24
2023-01-22T18:01:07.077Z,94.26
2023-01-22T18:04:13.352Z,95.36
2023-01-22T18:07:17.338Z,94.13
2023-01-22T18:10:20.863Z,94.70
2023-01-22T18:13:23.814Z,94.64
2023-01-22T18:16:28.700Z,94.04
2023-01-22T18:19:32.666Z,95.07
2023-01-22T18:22:35.271Z,95.62
2023-01-22T18:25:42.103Z,94.87
2023-01-22T18:28:44.701Z,96.18
2023-01-22T18:31:47.298Z,95.00
2023-01-22T18:34:51.273Z,94.46
2023-01-22T18:37:57.675Z,95.52
2023-01-22T18:41:05.954Z,94.08
2023-01-22T18:44:10.028Z,94.96
2023-01-22T18:47:12.976Z,94.16
2023-01-22T18:50:17.663Z,94.79
2023-01-22T18:53:20.343Z,94.89
2023-01-22T18:56:22.931Z,95.46
2023-01-22T18:59:25.580Z,95.19
2023-01-22T19:02:28.259Z,95.08
2023-01-22T19:05:32.273Z,95.38
2023-01-22T19:08:34.913Z,97.60
2023-01-22T19:11:40.545Z,97.61
2023-01-22T19:14:43.183Z,95.09
2023-01-22T19:17:45.770Z,95.22
2023-01-22T19:20:49.681Z,96.85
2023-01-22T19:23:54.650Z,98.06
2023-01-22T19:26:57.866Z,96.77
2023-01-22T19:30:00.586Z,97.18
2023-01-22T19:33:03.150Z,96.33
2023-01-22T19:36:08.189Z,96.92
2023-01-22T19:39:13.730Z,95.86
2023-01-22T19:42:16.385Z,94.84
2023-01-22T19:45:19.329Z,94.31
2023-01-22T19:48:22.546Z,94.07
2023-01-22T19:51:26.841Z,93.81
2023-01-22T19:54:29.581Z,93.74
2023-01-22T19:57:33.177Z,94.17
2023-01-22T20:00:35.764Z,94.34
2023-01-22T20:03:38.360Z,95.25
2023-01-22T20:06:45.112Z,93.67
2023-01-22T20:09:47.714Z,94.16
2023-01-22T20:12:50.808Z,93.86
2023-01-22T20:15:53.843Z,96.17
2023-01-22T20:18:58.266Z,95.40
2023-01-22T20:22:03.055Z,93.96
2023-01-22T20:25:07.995Z,95.88
2023-01-22T20:28:13.381Z,94.26
2023-01-22T20:31:19.738Z,94.31
2023-01-22T20:34:22.780Z,95.35
2023-01-22T20:37:27.196Z,94.62
2023-01-22T20:40:29.777Z,94.74
2023-01-22T20:43:32.900Z,95.19
2023-01-22T20:46:37.399Z,95.88
2023-01-22T20:49:40.027Z,94.87
2023-01-22T20:52:44.398Z,94.14
2023-01-22T20:55:48.625Z,95.48
2023-01-22T20:58:57.165Z,95.14
2023-01-22T21:01:59.850Z,94.28
2023-01-22T21:05:02.523Z,94.84
2023-01-22T21:08:06.812Z,94.73
2023-01-22T21:11:11.398Z,95.55
2023-01-22T21:14:17.738Z,95.78
2023-01-22T21:17:21.963Z,95.64
2023-01-22T21:20:24.552Z,96.40
2023-01-22T21:23:28.521Z,94.73
2023-01-22T21:26:33.049Z,94.77
2023-01-22T21:29:35.660Z,94.98
2023-01-22T21:32:38.278Z,94.88
2023-01-22T21:35:40.913Z,94.68
2023-01-22T21:38:45.818Z,94.47
2023-01-22T21:41:49.065Z,94.41
2023-01-22T21:45:09.410Z,96.04
2023-01-22T21:48:12.121Z,95.79
2023-01-22T21:51:14.858Z,98.04
2023-01-22T21:54:21.477Z,97.48
2023-01-22T21:57:24.062Z,96.68
2023-01-22T22:00:26.677Z,95.76
2023-01-22T22:03:32.603Z,96.40
2023-01-22T22:06:36.527Z,95.13
2023-01-22T22:09:40.495Z,95.46
2023-01-22T22:12:43.607Z,97.62
2023-01-22T22:15:46.342Z,96.46
2023-01-22T22:18:49.265Z,95.19
2023-01-22T22:21:52.402Z,94.70
2023-01-22T22:24:56.393Z,94.76
2023-01-22T22:27:59.091Z,93.98
2023-01-22T22:31:08.212Z,95.51
2023-01-22T22:34:10.960Z,96.03
2023-01-22T22:37:13.535Z,94.70
2023-01-22T22:40:19.315Z,96.28
2023-01-22T22:43:22.556Z,95.29
2023-01-22T22:46:28.855Z,96.16
2023-01-22T22:49:31.713Z,95.58
2023-01-22T22:52:34.707Z,95.01
2023-01-22T22:55:42.347Z,94.83
2023-01-22T22:58:44.961Z,93.68
2023-01-22T23:01:47.930Z,94.98
2023-01-22T23:04:50.551Z,96.40
2023-01-22T23:07:53.207Z,95.18
2023-01-22T23:10:57.135Z,94.68
2023-01-22T23:14:02.625Z,94.29
2023-01-22T23:17:05.263Z,94.61
2023-01-22T23:20:08.566Z,94.13
2023-01-22T23:23:11.164Z,94.56
2023-01-22T23:26:19.514Z,94.68
2023-01-22T23:29:26.535Z,94.75
2023-01-22T23:32:30.301Z,94.56
2023-01-22T23:35:32.974Z,94.67
2023-01-22T23:38:35.788Z,93.62
2023-01-22T23:41:39.783Z,93.52
2023-01-22T23:44:42.586Z,94.03
2023-01-22T23:47:45.167Z,94.27
2023-01-22T23:50:49.415Z,94.37
2023-01-22T23:53:53.146Z,94.95
2023-01-22T23:56:57.077Z,94.30
